sensor_id;sensor_type;location;lat;lon;timestamp;temperature;humidity
23597;DHT22;40226;50.874;4.394;2022-10-16T00:01:21;14.60;99.90
23597;DHT22;40226;50.874;4.394;2022-10-16T00:03:47;14.60;99.90
23597;DHT22;40226;50.874;4.394;2022-10-16T00:06:14;14.60;99.90
23597;DHT22;40226;50.874;4.394;2022-10-16T00:08:41;14.60;99.90
23597;DHT22;40226;50.874;4.394;2022-10-16T00:11:20;14.60;99.90
23597;DHT22;40226;50.874;4.394;2022-10-16T00:13:47;14.50;99.90
23597;DHT22;40226;50.874;4.394;2022-10-16T00:16:13;14.50;99.90
23597;DHT22;40226;50.874;4.394;2022-10-16T00:18:40;14.50;99.90
23597;DHT22;40226;50.874;4.394;2022-10-16T00:21:11;14.50;99.90
23597;DHT22;40226;50.874;4.394;2022-10-16T00:23:37;14.50;99.90
23597;DHT22;40226;50.874;4.394;2022-10-16T00:26:07;14.50;99.90
23597;DHT22;40226;50.874;4.394;2022-10-16T00:28:34;14.60;99.90
23597;DHT22;40226;50.874;4.394;2022-10-16T00:31:03;14.50;99.90
23597;DHT22;40226;50.874;4.394;2022-10-16T00:33:29;14.40;99.90
23597;DHT22;40226;50.874;4.394;2022-10-16T00:35:58;14.40;99.90
23597;DHT22;40226;50.874;4.394;2022-10-16T00:38:24;14.50;99.90
23597;DHT22;40226;50.874;4.394;2022-10-16T00:40:49;14.50;99.90
23597;DHT22;40226;50.874;4.394;2022-10-16T00:46:03;14.40;99.90
23597;DHT22;40226;50.874;4.394;2022-10-16T00:48:30;14.40;99.90
23597;DHT22;40226;50.874;4.394;2022-10-16T00:50:56;14.40;99.90
23597;DHT22;40226;50.874;4.394;2022-10-16T00:53:24;14.40;99.90
23597;DHT22;40226;50.874;4.394;2022-10-16T00:55:50;14.40;99.90
23597;DHT22;40226;50.874;4.394;2022-10-16T00:58:16;14.40;99.90
23597;DHT22;40226;50.874;4.394;2022-10-16T01:00:42;14.40;99.90
23597;DHT22;40226;50.874;4.394;2022-10-16T01:03:46;14.30;99.90
23597;DHT22;40226;50.874;4.394;2022-10-16T01:09:03;14.20;99.90
23597;DHT22;40226;50.874;4.394;2022-10-16T01:11:44;14.20;99.90
23597;DHT22;40226;50.874;4.394;2022-10-16T01:14:47;14.30;99.90
23597;DHT22;40226;50.874;4.394;2022-10-16T01:17:22;14.30;99.90
23597;DHT22;40226;50.874;4.394;2022-10-16T01:20:15;14.30;99.90
23597;DHT22;40226;50.874;4.394;2022-10-16T01:26:31;14.30;99.90
23597;DHT22;40226;50.874;4.394;2022-10-16T01:29:27;14.30;99.90
23597;DHT22;40226;50.874;4.394;2022-10-16T01:31:59;14.30;99.90
23597;DHT22;40226;50.874;4.394;2022-10-16T01:34:37;14.30;99.90
23597;DHT22;40226;50.874;4.394;2022-10-16T01:37:11;14.30;99.90
23597;DHT22;40226;50.874;4.394;2022-10-16T01:39:39;14.20;99.90
23597;DHT22;40226;50.874;4.394;2022-10-16T01:42:19;14.10;99.90
23597;DHT22;40226;50.874;4.394;2022-10-16T01:44:47;14.10;99.90
23597;DHT22;40226;50.874;4.394;2022-10-16T01:47:14;14.10;99.90
23597;DHT22;40226;50.874;4.394;2022-10-16T01:49:41;14.10;99.90
23597;DHT22;40226;50.874;4.394;2022-10-16T01:52:13;14.10;99.90
23597;DHT22;40226;50.874;4.394;2022-10-16T01:54:41;14.10;99.90
23597;DHT22;40226;50.874;4.394;2022-10-16T01:57:09;14.20;99.90
23597;DHT22;40226;50.874;4.394;2022-10-16T01:59:39;14.10;99.90
23597;DHT22;40226;50.874;4.394;2022-10-16T02:02:08;14.10;99.90
23597;DHT22;40226;50.874;4.394;2022-10-16T02:04:39;14.10;99.90
23597;DHT22;40226;50.874;4.394;2022-10-16T02:07:05;14.10;99.90
23597;DHT22;40226;50.874;4.394;2022-10-16T02:09:34;14.10;99.90
23597;DHT22;40226;50.874;4.394;2022-10-16T02:12:03;14.10;99.90
23597;DHT22;40226;50.874;4.394;2022-10-16T02:14:32;14.10;99.90
23597;DHT22;40226;50.874;4.394;2022-10-16T02:16:58;14.10;99.90
23597;DHT22;40226;50.874;4.394;2022-10-16T02:19:23;14.10;99.90
23597;DHT22;40226;50.874;4.394;2022-10-16T02:21:59;14.00;99.90
23597;DHT22;40226;50.874;4.394;2022-10-16T02:24:46;14.00;99.90
23597;DHT22;40226;50.874;4.394;2022-10-16T02:29:51;14.00;99.90
23597;DHT22;40226;50.874;4.394;2022-10-16T02:32:21;14.00;99.90
23597;DHT22;40226;50.874;4.394;2022-10-16T02:34:49;14.00;99.90
23597;DHT22;40226;50.874;4.394;2022-10-16T02:37:17;14.00;99.90
23597;DHT22;40226;50.874;4.394;2022-10-16T02:39:44;14.00;99.90
23597;DHT22;40226;50.874;4.394;2022-10-16T02:42:13;14.00;99.90
23597;DHT22;40226;50.874;4.394;2022-10-16T02:44:39;14.00;99.90
23597;DHT22;40226;50.874;4.394;2022-10-16T02:47:05;14.00;99.90
23597;DHT22;40226;50.874;4.394;2022-10-16T02:49:31;13.90;99.90
23597;DHT22;40226;50.874;4.394;2022-10-16T02:51:56;14.00;99.90
23597;DHT22;40226;50.874;4.394;2022-10-16T02:54:22;14.00;99.90
23597;DHT22;40226;50.874;4.394;2022-10-16T02:56:47;14.00;99.90
23597;DHT22;40226;50.874;4.394;2022-10-16T02:59:13;14.00;99.90
23597;DHT22;40226;50.874;4.394;2022-10-16T03:01:39;14.00;99.90
23597;DHT22;40226;50.874;4.394;2022-10-16T03:04:04;14.00;99.90
23597;DHT22;40226;50.874;4.394;2022-10-16T03:06:30;14.00;99.90
23597;DHT22;40226;50.874;4.394;2022-10-16T03:08:55;14.00;99.90
23597;DHT22;40226;50.874;4.394;2022-10-16T03:11:21;14.00;99.90
23597;DHT22;40226;50.874;4.394;2022-10-16T03:13:46;14.00;99.90
23597;DHT22;40226;50.874;4.394;2022-10-16T03:16:12;14.00;99.90
23597;DHT22;40226;50.874;4.394;2022-10-16T03:18:37;14.10;99.90
23597;DHT22;40226;50.874;4.394;2022-10-16T03:21:03;14.00;99.90
23597;DHT22;40226;50.874;4.394;2022-10-16T03:23:29;14.00;99.90
23597;DHT22;40226;50.874;4.394;2022-10-16T03:25:54;14.00;99.90
23597;DHT22;40226;50.874;4.394;2022-10-16T03:28:20;14.10;99.90
23597;DHT22;40226;50.874;4.394;2022-10-16T03:30:46;14.00;99.90
23597;DHT22;40226;50.874;4.394;2022-10-16T03:33:11;14.00;99.90
23597;DHT22;40226;50.874;4.394;2022-10-16T03:35:37;14.00;99.90
23597;DHT22;40226;50.874;4.394;2022-10-16T03:38:03;14.00;99.90
23597;DHT22;40226;50.874;4.394;2022-10-16T03:40:28;14.00;99.90
23597;DHT22;40226;50.874;4.394;2022-10-16T03:42:54;14.00;99.90
23597;DHT22;40226;50.874;4.394;2022-10-16T03:45:23;14.10;99.90
23597;DHT22;40226;50.874;4.394;2022-10-16T03:47:48;14.10;99.90
23597;DHT22;40226;50.874;4.394;2022-10-16T03:50:14;14.00;99.90
23597;DHT22;40226;50.874;4.394;2022-10-16T03:52:39;14.10;99.90
23597;DHT22;40226;50.874;4.394;2022-10-16T03:55:05;14.10;99.90
23597;DHT22;40226;50.874;4.394;2022-10-16T03:57:31;14.00;99.90
23597;DHT22;40226;50.874;4.394;2022-10-16T03:59:57;13.90;99.90
23597;DHT22;40226;50.874;4.394;2022-10-16T04:02:22;14.00;99.90
23597;DHT22;40226;50.874;4.394;2022-10-16T04:04:48;13.90;99.90
23597;DHT22;40226;50.874;4.394;2022-10-16T04:07:13;13.90;99.90
23597;DHT22;40226;50.874;4.394;2022-10-16T04:09:39;14.00;99.90
23597;DHT22;40226;50.874;4.394;2022-10-16T04:12:05;14.00;99.90
23597;DHT22;40226;50.874;4.394;2022-10-16T04:14:30;14.00;99.90
23597;DHT22;40226;50.874;4.394;2022-10-16T04:16:56;14.00;99.90
23597;DHT22;40226;50.874;4.394;2022-10-16T04:19:21;14.00;99.90
23597;DHT22;40226;50.874;4.394;2022-10-16T04:21:47;14.00;99.90
23597;DHT22;40226;50.874;4.394;2022-10-16T04:24:12;14.00;99.90
23597;DHT22;40226;50.874;4.394;2022-10-16T04:26:38;14.00;99.90
23597;DHT22;40226;50.874;4.394;2022-10-16T04:29:04;14.00;99.90
23597;DHT22;40226;50.874;4.394;2022-10-16T04:31:29;14.00;99.90
23597;DHT22;40226;50.874;4.394;2022-10-16T04:33:55;13.90;99.90
23597;DHT22;40226;50.874;4.394;2022-10-16T04:36:21;13.90;99.90
23597;DHT22;40226;50.874;4.394;2022-10-16T04:38:46;13.80;99.90
23597;DHT22;40226;50.874;4.394;2022-10-16T04:41:12;13.80;99.90
23597;DHT22;40226;50.874;4.394;2022-10-16T04:43:37;13.80;99.90
23597;DHT22;40226;50.874;4.394;2022-10-16T04:46:03;13.90;99.90
23597;DHT22;40226;50.874;4.394;2022-10-16T04:48:30;13.80;99.90
23597;DHT22;40226;50.874;4.394;2022-10-16T04:50:56;13.80;99.90
23597;DHT22;40226;50.874;4.394;2022-10-16T04:53:21;13.80;99.90
23597;DHT22;40226;50.874;4.394;2022-10-16T04:55:47;13.80;99.90
23597;DHT22;40226;50.874;4.394;2022-10-16T04:58:13;13.80;99.90
23597;DHT22;40226;50.874;4.394;2022-10-16T05:00:38;13.80;99.90
23597;DHT22;40226;50.874;4.394;2022-10-16T05:03:04;13.80;99.90
23597;DHT22;40226;50.874;4.394;2022-10-16T05:05:33;13.70;99.90
23597;DHT22;40226;50.874;4.394;2022-10-16T05:07:59;13.80;99.90
23597;DHT22;40226;50.874;4.394;2022-10-16T05:10:24;13.70;99.90
23597;DHT22;40226;50.874;4.394;2022-10-16T05:12:50;13.70;99.90
23597;DHT22;40226;50.874;4.394;2022-10-16T05:15:17;13.70;99.90
23597;DHT22;40226;50.874;4.394;2022-10-16T05:17:42;13.70;99.90
23597;DHT22;40226;50.874;4.394;2022-10-16T05:20:08;13.80;99.90
23597;DHT22;40226;50.874;4.394;2022-10-16T05:22:33;13.80;99.90
23597;DHT22;40226;50.874;4.394;2022-10-16T05:24:59;13.80;99.90
23597;DHT22;40226;50.874;4.394;2022-10-16T05:27:25;13.70;99.90
23597;DHT22;40226;50.874;4.394;2022-10-16T05:29:50;13.70;99.90
23597;DHT22;40226;50.874;4.394;2022-10-16T05:32:17;13.70;99.90
23597;DHT22;40226;50.874;4.394;2022-10-16T05:34:43;13.70;99.90
23597;DHT22;40226;50.874;4.394;2022-10-16T05:37:09;13.70;99.90
23597;DHT22;40226;50.874;4.394;2022-10-16T05:39:36;13.80;99.90
23597;DHT22;40226;50.874;4.394;2022-10-16T05:42:02;13.70;99.90
23597;DHT22;40226;50.874;4.394;2022-10-16T05:44:28;13.70;99.90
23597;DHT22;40226;50.874;4.394;2022-10-16T05:46:53;13.60;99.90
23597;DHT22;40226;50.874;4.394;2022-10-16T05:49:19;13.70;99.90
23597;DHT22;40226;50.874;4.394;2022-10-16T05:51:44;13.70;99.90
23597;DHT22;40226;50.874;4.394;2022-10-16T05:54:10;13.70;99.90
23597;DHT22;40226;50.874;4.394;2022-10-16T05:56:36;13.70;99.90
23597;DHT22;40226;50.874;4.394;2022-10-16T05:59:03;13.70;99.90
23597;DHT22;40226;50.874;4.394;2022-10-16T06:01:30;13.60;99.90
23597;DHT22;40226;50.874;4.394;2022-10-16T06:03:56;13.60;99.90
23597;DHT22;40226;50.874;4.394;2022-10-16T06:06:25;13.60;99.90
23597;DHT22;40226;50.874;4.394;2022-10-16T06:08:51;13.60;99.90
23597;DHT22;40226;50.874;4.394;2022-10-16T06:11:22;13.70;99.90
23597;DHT22;40226;50.874;4.394;2022-10-16T06:13:52;13.70;99.90
23597;DHT22;40226;50.874;4.394;2022-10-16T06:16:19;13.70;99.90
23597;DHT22;40226;50.874;4.394;2022-10-16T06:18:45;13.70;99.90
23597;DHT22;40226;50.874;4.394;2022-10-16T06:21:13;13.70;99.90
23597;DHT22;40226;50.874;4.394;2022-10-16T06:23:39;13.80;99.90
23597;DHT22;40226;50.874;4.394;2022-10-16T06:26:10;13.70;99.90
23597;DHT22;40226;50.874;4.394;2022-10-16T06:28:36;13.80;99.90
23597;DHT22;40226;50.874;4.394;2022-10-16T06:31:03;13.80;99.90
23597;DHT22;40226;50.874;4.394;2022-10-16T06:33:29;13.70;99.90
23597;DHT22;40226;50.874;4.394;2022-10-16T06:36:03;13.80;99.90
23597;DHT22;40226;50.874;4.394;2022-10-16T06:38:29;13.70;99.90
23597;DHT22;40226;50.874;4.394;2022-10-16T06:40:55;13.80;99.90
23597;DHT22;40226;50.874;4.394;2022-10-16T06:43:21;13.80;99.90
23597;DHT22;40226;50.874;4.394;2022-10-16T06:45:53;13.80;99.90
23597;DHT22;40226;50.874;4.394;2022-10-16T06:48:19;13.80;99.90
23597;DHT22;40226;50.874;4.394;2022-10-16T06:50:55;13.90;99.90
23597;DHT22;40226;50.874;4.394;2022-10-16T06:53:21;14.00;99.90
23597;DHT22;40226;50.874;4.394;2022-10-16T06:55:47;14.00;99.90
23597;DHT22;40226;50.874;4.394;2022-10-16T06:58:12;14.00;99.90
23597;DHT22;40226;50.874;4.394;2022-10-16T07:00:38;14.00;99.90
23597;DHT22;40226;50.874;4.394;2022-10-16T07:03:03;14.00;99.90
23597;DHT22;40226;50.874;4.394;2022-10-16T07:05:29;14.00;99.90
23597;DHT22;40226;50.874;4.394;2022-10-16T07:07:54;14.10;99.90
23597;DHT22;40226;50.874;4.394;2022-10-16T07:10:20;14.10;99.90
23597;DHT22;40226;50.874;4.394;2022-10-16T07:12:49;14.00;99.90
23597;DHT22;40226;50.874;4.394;2022-10-16T07:15:15;14.00;99.90
23597;DHT22;40226;50.874;4.394;2022-10-16T07:17:40;14.10;99.90
23597;DHT22;40226;50.874;4.394;2022-10-16T07:20:06;14.10;99.90
23597;DHT22;40226;50.874;4.394;2022-10-16T07:22:32;14.10;99.90
23597;DHT22;40226;50.874;4.394;2022-10-16T07:24:58;14.00;99.90
23597;DHT22;40226;50.874;4.394;2022-10-16T07:27:24;14.10;99.90
23597;DHT22;40226;50.874;4.394;2022-10-16T07:29:50;14.10;99.90
23597;DHT22;40226;50.874;4.394;2022-10-16T07:32:15;14.20;99.90
23597;DHT22;40226;50.874;4.394;2022-10-16T07:34:41;14.20;99.90
23597;DHT22;40226;50.874;4.394;2022-10-16T07:37:07;14.20;99.90
23597;DHT22;40226;50.874;4.394;2022-10-16T07:39:33;14.30;99.90
23597;DHT22;40226;50.874;4.394;2022-10-16T07:41:59;14.30;99.90
23597;DHT22;40226;50.874;4.394;2022-10-16T07:44:24;14.30;99.90
23597;DHT22;40226;50.874;4.394;2022-10-16T07:46:50;14.30;99.90
23597;DHT22;40226;50.874;4.394;2022-10-16T07:49:15;14.40;99.90
23597;DHT22;40226;50.874;4.394;2022-10-16T07:51:41;14.50;99.90
23597;DHT22;40226;50.874;4.394;2022-10-16T07:54:08;14.50;99.90
23597;DHT22;40226;50.874;4.394;2022-10-16T07:56:34;14.50;99.90
23597;DHT22;40226;50.874;4.394;2022-10-16T07:59:00;14.50;99.90
23597;DHT22;40226;50.874;4.394;2022-10-16T08:01:25;14.50;99.90
23597;DHT22;40226;50.874;4.394;2022-10-16T08:03:51;14.50;99.90
23597;DHT22;40226;50.874;4.394;2022-10-16T08:06:18;14.50;99.90
23597;DHT22;40226;50.874;4.394;2022-10-16T08:08:44;14.50;99.90
23597;DHT22;40226;50.874;4.394;2022-10-16T08:11:10;14.60;99.90
23597;DHT22;40226;50.874;4.394;2022-10-16T08:13:36;14.70;99.90
23597;DHT22;40226;50.874;4.394;2022-10-16T08:16:02;14.70;99.90
23597;DHT22;40226;50.874;4.394;2022-10-16T08:18:37;14.70;99.90
23597;DHT22;40226;50.874;4.394;2022-10-16T08:21:04;14.80;99.90
23597;DHT22;40226;50.874;4.394;2022-10-16T08:23:30;14.80;99.90
23597;DHT22;40226;50.874;4.394;2022-10-16T08:26:01;15.00;99.90
23597;DHT22;40226;50.874;4.394;2022-10-16T08:28:27;15.00;99.90
23597;DHT22;40226;50.874;4.394;2022-10-16T08:30:53;15.00;99.90
23597;DHT22;40226;50.874;4.394;2022-10-16T08:33:18;15.00;99.90
23597;DHT22;40226;50.874;4.394;2022-10-16T08:35:53;15.10;99.90
23597;DHT22;40226;50.874;4.394;2022-10-16T08:38:19;15.20;99.90
23597;DHT22;40226;50.874;4.394;2022-10-16T08:40:45;15.10;99.90
23597;DHT22;40226;50.874;4.394;2022-10-16T08:46:43;15.30;99.90
23597;DHT22;40226;50.874;4.394;2022-10-16T08:49:12;15.30;99.90
23597;DHT22;40226;50.874;4.394;2022-10-16T08:51:41;15.50;99.90
23597;DHT22;40226;50.874;4.394;2022-10-16T08:54:47;15.40;99.90
23597;DHT22;40226;50.874;4.394;2022-10-16T08:57:19;15.40;99.90
23597;DHT22;40226;50.874;4.394;2022-10-16T08:59:45;15.40;99.90
23597;DHT22;40226;50.874;4.394;2022-10-16T09:02:24;15.50;99.90
23597;DHT22;40226;50.874;4.394;2022-10-16T09:10:48;15.70;99.90
23597;DHT22;40226;50.874;4.394;2022-10-16T09:16:02;15.80;99.90
23597;DHT22;40226;50.874;4.394;2022-10-16T09:21:24;15.80;99.90
23597;DHT22;40226;50.874;4.394;2022-10-16T09:23:50;15.90;99.90
23597;DHT22;40226;50.874;4.394;2022-10-16T09:26:16;15.90;99.90
23597;DHT22;40226;50.874;4.394;2022-10-16T09:28:44;16.10;99.90
23597;DHT22;40226;50.874;4.394;2022-10-16T09:31:19;16.20;99.90
23597;DHT22;40226;50.874;4.394;2022-10-16T09:33:59;16.20;99.90
23597;DHT22;40226;50.874;4.394;2022-10-16T09:36:27;16.20;99.90
23597;DHT22;40226;50.874;4.394;2022-10-16T09:39:05;16.30;99.90
23597;DHT22;40226;50.874;4.394;2022-10-16T09:41:34;16.30;99.90
23597;DHT22;40226;50.874;4.394;2022-10-16T09:44:02;16.40;99.90
23597;DHT22;40226;50.874;4.394;2022-10-16T09:46:30;16.50;99.90
23597;DHT22;40226;50.874;4.394;2022-10-16T09:49:23;16.70;99.90
23597;DHT22;40226;50.874;4.394;2022-10-16T09:51:50;16.90;99.90
23597;DHT22;40226;50.874;4.394;2022-10-16T09:54:18;17.10;99.90
23597;DHT22;40226;50.874;4.394;2022-10-16T09:56:44;17.20;99.90
23597;DHT22;40226;50.874;4.394;2022-10-16T09:59:17;17.00;99.90
23597;DHT22;40226;50.874;4.394;2022-10-16T10:01:46;17.00;99.90
23597;DHT22;40226;50.874;4.394;2022-10-16T10:04:12;17.00;99.90
23597;DHT22;40226;50.874;4.394;2022-10-16T10:06:57;17.00;99.90
23597;DHT22;40226;50.874;4.394;2022-10-16T10:09:24;17.00;99.90
23597;DHT22;40226;50.874;4.394;2022-10-16T10:11:59;16.90;99.90
23597;DHT22;40226;50.874;4.394;2022-10-16T10:14:35;16.90;99.90
23597;DHT22;40226;50.874;4.394;2022-10-16T10:19:36;17.00;99.90
23597;DHT22;40226;50.874;4.394;2022-10-16T10:22:12;17.30;99.90
23597;DHT22;40226;50.874;4.394;2022-10-16T10:24:38;17.60;99.90
23597;DHT22;40226;50.874;4.394;2022-10-16T10:27:16;17.60;99.90
23597;DHT22;40226;50.874;4.394;2022-10-16T10:41:02;20.00;99.90
23597;DHT22;40226;50.874;4.394;2022-10-16T10:46:32;20.10;99.90
23597;DHT22;40226;50.874;4.394;2022-10-16T10:49:13;20.30;99.90
23597;DHT22;40226;50.874;4.394;2022-10-16T10:54:54;19.50;99.90
23597;DHT22;40226;50.874;4.394;2022-10-16T10:57:29;19.90;99.90
23597;DHT22;40226;50.874;4.394;2022-10-16T11:00:10;20.60;99.90
23597;DHT22;40226;50.874;4.394;2022-10-16T11:05:56;19.80;99.90
23597;DHT22;40226;50.874;4.394;2022-10-16T11:08:36;19.30;99.90
23597;DHT22;40226;50.874;4.394;2022-10-16T11:11:13;19.30;99.90
23597;DHT22;40226;50.874;4.394;2022-10-16T11:13:59;20.00;99.90
23597;DHT22;40226;50.874;4.394;2022-10-16T11:22:03;19.20;99.90
23597;DHT22;40226;50.874;4.394;2022-10-16T11:24:45;19.40;99.90
23597;DHT22;40226;50.874;4.394;2022-10-16T11:27:21;20.20;99.90
23597;DHT22;40226;50.874;4.394;2022-10-16T11:29:59;20.50;99.90
23597;DHT22;40226;50.874;4.394;2022-10-16T11:35:19;19.70;99.90
23597;DHT22;40226;50.874;4.394;2022-10-16T11:37:52;19.60;99.90
23597;DHT22;40226;50.874;4.394;2022-10-16T11:40:41;19.50;99.90
23597;DHT22;40226;50.874;4.394;2022-10-16T11:43:22;19.50;99.90
23597;DHT22;40226;50.874;4.394;2022-10-16T11:45:54;19.80;99.90
23597;DHT22;40226;50.874;4.394;2022-10-16T11:48:35;19.90;99.90
23597;DHT22;40226;50.874;4.394;2022-10-16T11:51:26;20.10;99.90
23597;DHT22;40226;50.874;4.394;2022-10-16T11:54:13;20.50;99.90
23597;DHT22;40226;50.874;4.394;2022-10-16T11:56:43;20.40;99.90
23597;DHT22;40226;50.874;4.394;2022-10-16T11:59:43;20.10;99.90
23597;DHT22;40226;50.874;4.394;2022-10-16T12:05:22;20.00;99.90
23597;DHT22;40226;50.874;4.394;2022-10-16T12:08:13;19.80;99.90
23597;DHT22;40226;50.874;4.394;2022-10-16T12:10:42;20.00;99.90
23597;DHT22;40226;50.874;4.394;2022-10-16T12:13:34;20.20;99.90
23597;DHT22;40226;50.874;4.394;2022-10-16T12:18:43;20.30;99.90
23597;DHT22;40226;50.874;4.394;2022-10-16T12:21:10;20.90;99.90
23597;DHT22;40226;50.874;4.394;2022-10-16T12:23:51;21.30;99.90
23597;DHT22;40226;50.874;4.394;2022-10-16T12:26:28;21.10;99.90
23597;DHT22;40226;50.874;4.394;2022-10-16T12:28:55;21.10;99.90
23597;DHT22;40226;50.874;4.394;2022-10-16T12:31:21;21.20;99.90
23597;DHT22;40226;50.874;4.394;2022-10-16T12:38:54;21.90;99.90
23597;DHT22;40226;50.874;4.394;2022-10-16T12:41:31;21.80;99.90
23597;DHT22;40226;50.874;4.394;2022-10-16T12:44:00;22.00;99.90
23597;DHT22;40226;50.874;4.394;2022-10-16T12:49:51;21.60;99.90
23597;DHT22;40226;50.874;4.394;2022-10-16T12:51:53;21.40;99.90
23597;DHT22;40226;50.874;4.394;2022-10-16T12:54:27;20.90;99.90
23597;DHT22;40226;50.874;4.394;2022-10-16T13:08:39;21.10;99.90
23597;DHT22;40226;50.874;4.394;2022-10-16T13:10:53;21.50;99.90
23597;DHT22;40226;50.874;4.394;2022-10-16T13:19:15;21.10;99.90
23597;DHT22;40226;50.874;4.394;2022-10-16T13:27:39;20.80;99.90
23597;DHT22;40226;50.874;4.394;2022-10-16T13:32:39;21.10;99.90
23597;DHT22;40226;50.874;4.394;2022-10-16T13:35:19;21.20;99.90
23597;DHT22;40226;50.874;4.394;2022-10-16T13:37:44;21.50;99.90
23597;DHT22;40226;50.874;4.394;2022-10-16T13:40:28;21.40;99.90
23597;DHT22;40226;50.874;4.394;2022-10-16T13:42:54;21.80;99.90
23597;DHT22;40226;50.874;4.394;2022-10-16T13:45:22;21.90;99.90
23597;DHT22;40226;50.874;4.394;2022-10-16T13:47:49;21.80;99.90
23597;DHT22;40226;50.874;4.394;2022-10-16T13:50:18;21.80;99.90
23597;DHT22;40226;50.874;4.394;2022-10-16T13:52:44;21.80;99.90
23597;DHT22;40226;50.874;4.394;2022-10-16T13:55:12;21.60;99.90
23597;DHT22;40226;50.874;4.394;2022-10-16T13:57:38;21.50;99.90
23597;DHT22;40226;50.874;4.394;2022-10-16T14:00:18;21.50;99.90
23597;DHT22;40226;50.874;4.394;2022-10-16T14:02:44;21.50;99.90
23597;DHT22;40226;50.874;4.394;2022-10-16T14:05:10;21.20;99.90
23597;DHT22;40226;50.874;4.394;2022-10-16T14:07:36;21.10;99.90
23597;DHT22;40226;50.874;4.394;2022-10-16T14:10:06;21.20;99.90
23597;DHT22;40226;50.874;4.394;2022-10-16T14:12:34;21.10;99.90
23597;DHT22;40226;50.874;4.394;2022-10-16T14:15:00;21.10;99.90
23597;DHT22;40226;50.874;4.394;2022-10-16T14:17:32;21.10;99.90
23597;DHT22;40226;50.874;4.394;2022-10-16T14:20:01;21.30;99.90
23597;DHT22;40226;50.874;4.394;2022-10-16T14:22:45;21.30;99.90
23597;DHT22;40226;50.874;4.394;2022-10-16T14:30:29;20.90;99.90
23597;DHT22;40226;50.874;4.394;2022-10-16T14:33:03;21.00;99.90
23597;DHT22;40226;50.874;4.394;2022-10-16T14:35:32;21.20;99.90
23597;DHT22;40226;50.874;4.394;2022-10-16T14:37:59;21.30;99.90
23597;DHT22;40226;50.874;4.394;2022-10-16T14:40:33;21.60;99.90
23597;DHT22;40226;50.874;4.394;2022-10-16T14:43:00;21.40;99.90
23597;DHT22;40226;50.874;4.394;2022-10-16T14:45:29;21.50;99.90
23597;DHT22;40226;50.874;4.394;2022-10-16T14:48:04;21.70;99.90
23597;DHT22;40226;50.874;4.394;2022-10-16T14:50:31;21.50;99.90
23597;DHT22;40226;50.874;4.394;2022-10-16T14:52:58;21.50;99.90
23597;DHT22;40226;50.874;4.394;2022-10-16T14:55:24;21.50;99.90
23597;DHT22;40226;50.874;4.394;2022-10-16T14:57:53;21.60;99.90
23597;DHT22;40226;50.874;4.394;2022-10-16T15:00:21;21.70;99.90
23597;DHT22;40226;50.874;4.394;2022-10-16T15:02:48;21.50;99.90
23597;DHT22;40226;50.874;4.394;2022-10-16T15:05:25;21.40;99.90
23597;DHT22;40226;50.874;4.394;2022-10-16T15:07:53;21.40;99.90
23597;DHT22;40226;50.874;4.394;2022-10-16T15:10:21;21.20;99.90
23597;DHT22;40226;50.874;4.394;2022-10-16T15:12:50;21.30;99.90
23597;DHT22;40226;50.874;4.394;2022-10-16T15:17:49;21.40;99.90
23597;DHT22;40226;50.874;4.394;2022-10-16T15:20:19;21.20;99.90
23597;DHT22;40226;50.874;4.394;2022-10-16T15:22:45;21.00;99.90
23597;DHT22;40226;50.874;4.394;2022-10-16T15:27:43;21.00;99.90
23597;DHT22;40226;50.874;4.394;2022-10-16T15:30:09;20.70;99.90
23597;DHT22;40226;50.874;4.394;2022-10-16T15:32:35;20.80;99.90
23597;DHT22;40226;50.874;4.394;2022-10-16T15:35:00;20.90;99.90
23597;DHT22;40226;50.874;4.394;2022-10-16T15:37:26;20.80;99.90
23597;DHT22;40226;50.874;4.394;2022-10-16T15:39:51;20.80;99.90
23597;DHT22;40226;50.874;4.394;2022-10-16T15:42:17;20.70;99.90
23597;DHT22;40226;50.874;4.394;2022-10-16T15:44:43;20.50;99.90
23597;DHT22;40226;50.874;4.394;2022-10-16T15:47:09;20.30;99.90
23597;DHT22;40226;50.874;4.394;2022-10-16T15:49:34;20.30;99.90
23597;DHT22;40226;50.874;4.394;2022-10-16T15:52:01;20.20;99.90
23597;DHT22;40226;50.874;4.394;2022-10-16T15:54:26;20.20;99.90
23597;DHT22;40226;50.874;4.394;2022-10-16T15:56:52;20.00;99.90
23597;DHT22;40226;50.874;4.394;2022-10-16T15:59:17;19.90;99.90
23597;DHT22;40226;50.874;4.394;2022-10-16T16:01:43;19.90;99.90
23597;DHT22;40226;50.874;4.394;2022-10-16T16:04:09;19.90;99.90
23597;DHT22;40226;50.874;4.394;2022-10-16T16:06:35;19.80;99.90
23597;DHT22;40226;50.874;4.394;2022-10-16T16:09:02;19.80;99.90
23597;DHT22;40226;50.874;4.394;2022-10-16T16:11:28;19.80;99.90
23597;DHT22;40226;50.874;4.394;2022-10-16T16:13:54;19.80;99.90
23597;DHT22;40226;50.874;4.394;2022-10-16T16:16:20;19.50;99.90
23597;DHT22;40226;50.874;4.394;2022-10-16T16:18:46;19.50;99.90
23597;DHT22;40226;50.874;4.394;2022-10-16T16:21:13;19.50;99.90
23597;DHT22;40226;50.874;4.394;2022-10-16T16:23:39;19.30;99.90
23597;DHT22;40226;50.874;4.394;2022-10-16T16:28:31;19.30;99.90
23597;DHT22;40226;50.874;4.394;2022-10-16T16:30:56;19.40;99.90
23597;DHT22;40226;50.874;4.394;2022-10-16T16:33:22;19.40;99.90
23597;DHT22;40226;50.874;4.394;2022-10-16T16:35:48;19.40;99.90
23597;DHT22;40226;50.874;4.394;2022-10-16T16:38:14;19.40;99.90
23597;DHT22;40226;50.874;4.394;2022-10-16T16:40:39;19.20;99.90
23597;DHT22;40226;50.874;4.394;2022-10-16T16:43:05;19.10;99.90
23597;DHT22;40226;50.874;4.394;2022-10-16T16:45:30;19.00;99.90
23597;DHT22;40226;50.874;4.394;2022-10-16T16:47:56;19.10;99.90
23597;DHT22;40226;50.874;4.394;2022-10-16T16:50:21;19.00;99.90
23597;DHT22;40226;50.874;4.394;2022-10-16T16:52:47;19.00;99.90
23597;DHT22;40226;50.874;4.394;2022-10-16T16:55:12;19.00;99.90
23597;DHT22;40226;50.874;4.394;2022-10-16T16:57:38;18.90;99.90
23597;DHT22;40226;50.874;4.394;2022-10-16T17:00:04;19.00;99.90
23597;DHT22;40226;50.874;4.394;2022-10-16T17:02:30;19.00;99.90
23597;DHT22;40226;50.874;4.394;2022-10-16T17:04:55;19.10;99.90
23597;DHT22;40226;50.874;4.394;2022-10-16T17:07:22;18.80;99.90
23597;DHT22;40226;50.874;4.394;2022-10-16T17:09:50;18.60;99.90
23597;DHT22;40226;50.874;4.394;2022-10-16T17:12:15;18.60;99.90
23597;DHT22;40226;50.874;4.394;2022-10-16T17:14:41;18.50;99.90
23597;DHT22;40226;50.874;4.394;2022-10-16T17:17:07;18.40;99.90
23597;DHT22;40226;50.874;4.394;2022-10-16T17:19:32;18.30;99.90
23597;DHT22;40226;50.874;4.394;2022-10-16T17:21:58;18.20;99.90
23597;DHT22;40226;50.874;4.394;2022-10-16T17:24:24;18.00;99.90
23597;DHT22;40226;50.874;4.394;2022-10-16T17:26:49;17.90;99.90
23597;DHT22;40226;50.874;4.394;2022-10-16T17:29:16;17.70;99.90
23597;DHT22;40226;50.874;4.394;2022-10-16T17:31:42;17.70;99.90